KPHX/PHX METAR and TAF weather

Enter ICAO airport designator
Station Type Date Time Source
KPHX METAR 2020/01/17 22:51 UTC NOAA

KPHX 172251Z 28009KT 10SM FEW075 SCT250 SCT290 17/03 A3012 RMK AO2 SLP192 T01720033


Station Type Date Time Source
KPHX Decoded METAR 2020/01/17 22:51 UTC NOAA

Phoenix, Phoenix Sky Harbor International Airport, AZ, United States (KPHX) 33-26-03N 112-03-04W 336M
Jan 17, 2020 - 05:51 PM EST / 2020.01.17 2251 UTC
Wind: from the W (280 degrees) at 10 MPH (9 KT):0
Visibility: 10 mile(s):0
Sky conditions: partly cloudy
Temperature: 63.0 F (17.2 C)
Dew Point: 37.9 F (3.3 C)
Relative Humidity: 39%
Pressure (altimeter): 30.12 in. Hg (1019 hPa)
ob: KPHX 172251Z 28009KT 10SM FEW075 SCT250 SCT290 17/03 A3012 RMK AO2 SLP192 T01720033
cycle: 23

Station Type Date Time Source
KPHX TAF 2020/01/17 21:36 UTC NOAA

TAF
AMD KPHX 172035Z 1721/1824 27005KT P6SM FEW080 BKN250
FM180500 09005KT P6SM FEW250

Example: see airport list